메인 페이지
METAR-TAF:

METAR-TAF

공항 :

Guaratinguetá, 상파울루, 브라질

위도: 22-47S, 경도: 045-12W, 고도: 537m

현재 날씨관측

예보는 8 시간 23분 전, 22:00시(UTC)에 발표되었습니다.
4kt
온도 18°C
습도 83%
기압 1024 hPa
시정: 6000m
고도 1000ft 상공 구름 조금
고도 2000ft 상공 구름 많음

METAR: SBGW 222200Z 01004KT 6000 FEW010 BKN020 18/15 Q1024

시각: 03:23 (06:23 UTC)

예보

예보는 15 시간 23분 전, 15:00시(UTC)에 발표되었습니다.
예보 대상 시간: 22일 18시부터 23일 06시까지 (UTC)
남남동6kt
시정: 6000m
고도 400ft 상공 구름 보통
고도 1500ft 상공 구름 많음
확률 40%
23일 00시부터 23일 06시까지 (UTC)
동북동2kt
고도 600ft 상공 구름 보통
고도 2500ft 상공 구름 보통
소나기

TAF: SBGW 221500Z 2218/2306 15006KT 6000 RA SCT004 BKN015 TX21/2218Z TN15/2306Z PROB40 2300/2306 06002KT SHRA SCT006 SCT025 RMK PAY

4,000개 이상의 공항 관측 자료 및 예보 (METAR 및 TAF 보고).

지도상에서 검색 가능한 기상관측소가 노란 점과 빨간 점으로 표시되어 있습니다.

기상관측소 명을 보려면 표시 위로 마우스를 이동하세요.

날씨 관측과 예보를 보려면 클릭하세요.

지도 변경 : 확대하려면 엑스 표시가 있는 녹색 버튼, 축소하려면 빼기 표시가 있는 녹색 버튼, 다음 페이지의 지도를 보려면 녹색 화살표를 클릭하세요.


METAR-TAF: